createdAt,value
2023-03-17T00:00:20.984Z,5.16
2023-03-17T00:05:43.792Z,5.83
2023-03-17T00:10:46.665Z,3.75
2023-03-17T00:16:05.010Z,3.16
2023-03-17T00:21:15.691Z,5.18
2023-03-17T00:26:19.786Z,6.02
2023-03-17T00:31:26.264Z,4.13
2023-03-17T00:36:31.910Z,2.89
2023-03-17T00:41:34.720Z,4.72
2023-03-17T00:46:38.420Z,5.99
2023-03-17T00:51:43.606Z,4.59
2023-03-17T00:56:52.200Z,2.84
2023-03-17T01:01:56.300Z,4.30
2023-03-17T01:06:59.372Z,5.81
2023-03-17T01:12:02.237Z,5.56
2023-03-17T01:17:15.079Z,3.44
2023-03-17T01:22:17.834Z,4.38
2023-03-17T01:27:20.705Z,6.01
2023-03-17T01:32:23.570Z,5.91
2023-03-17T01:37:27.128Z,3.78
2023-03-17T01:42:30.129Z,4.30
2023-03-17T01:47:33.542Z,5.97
2023-03-17T01:52:39.995Z,5.93
2023-03-17T01:57:56.713Z,3.73
2023-03-17T02:03:00.007Z,4.47
2023-03-17T02:08:03.322Z,5.98
2023-03-17T02:13:07.931Z,6.28
2023-03-17T02:18:13.772Z,4.02
2023-03-17T02:23:22.446Z,3.96
2023-03-17T02:28:30.490Z,5.70
2023-03-17T02:33:33.584Z,6.42
2023-03-17T02:38:37.424Z,4.55
2023-03-17T02:43:41.596Z,3.63
2023-03-17T02:48:46.219Z,5.37
2023-03-17T02:53:49.037Z,6.31
2023-03-17T02:58:52.044Z,4.60
2023-03-17T03:03:55.437Z,3.73
2023-03-17T03:08:58.635Z,5.50
2023-03-17T03:14:01.395Z,6.37
2023-03-17T03:19:04.831Z,4.86
2023-03-17T03:24:09.230Z,4.08
2023-03-17T03:29:12.340Z,6.13
2023-03-17T03:34:15.613Z,6.04
2023-03-17T03:39:18.442Z,3.88
2023-03-17T03:44:21.489Z,4.85
2023-03-17T03:49:24.596Z,6.20
2023-03-17T03:54:27.399Z,5.80
2023-03-17T03:59:30.596Z,3.72
2023-03-17T04:04:33.549Z,4.93
2023-03-17T04:09:36.661Z,6.25
2023-03-17T04:14:39.386Z,5.69
2023-03-17T04:19:42.315Z,3.68
2023-03-17T04:24:45.069Z,4.98
2023-03-17T04:29:49.126Z,6.30
2023-03-17T04:34:51.997Z,5.50
2023-03-17T04:39:55.930Z,3.81
2023-03-17T04:44:58.846Z,5.36
2023-03-17T04:50:02.240Z,6.52
2023-03-17T04:55:08.373Z,5.32
2023-03-17T05:00:12.871Z,3.54
2023-03-17T05:05:16.089Z,4.93
2023-03-17T05:10:19.018Z,6.54
2023-03-17T05:15:21.775Z,5.58
2023-03-17T05:20:26.115Z,3.76
2023-03-17T05:25:28.937Z,5.39
2023-03-17T05:30:32.007Z,6.84
2023-03-17T05:35:35.058Z,5.83
2023-03-17T05:40:38.240Z,4.19
2023-03-17T05:45:41.370Z,5.77
2023-03-17T05:50:44.423Z,6.91
2023-03-17T05:55:47.920Z,4.96
2023-03-17T06:00:51.239Z,4.40
2023-03-17T06:05:54.561Z,6.37
2023-03-17T06:10:57.453Z,6.81
2023-03-17T06:16:00.239Z,4.93
2023-03-17T06:21:03.004Z,5.69
2023-03-17T06:26:06.441Z,7.49
2023-03-17T06:31:09.418Z,6.91
2023-03-17T06:36:12.438Z,5.13
2023-03-17T06:41:16.240Z,4.50
2023-03-17T06:46:19.100Z,6.67
2023-03-17T06:51:22.157Z,8.25
2023-03-17T06:56:30.307Z,6.91
2023-03-17T07:01:33.907Z,5.75
2023-03-17T07:06:36.846Z,6.00
2023-03-17T07:11:39.631Z,8.33
2023-03-17T07:16:42.586Z,8.29
2023-03-17T07:21:47.057Z,6.97
2023-03-17T07:26:50.384Z,6.18
2023-03-17T07:31:54.228Z,6.81
2023-03-17T07:36:57.683Z,9.54
2023-03-17T07:42:00.511Z,9.57
2023-03-17T07:47:03.340Z,8.69
2023-03-17T07:52:06.709Z,8.03
2023-03-17T07:57:13.093Z,7.43
2023-03-17T08:02:18.450Z,7.10
2023-03-17T08:07:23.831Z,6.94
2023-03-17T08:12:26.745Z,7.56
2023-03-17T08:17:29.511Z,9.60
2023-03-17T08:22:32.342Z,9.31
2023-03-17T08:27:35.214Z,9.56
2023-03-17T08:32:38.113Z,10.35
2023-03-17T08:37:40.964Z,12.39
2023-03-17T08:42:45.325Z,14.12
2023-03-17T08:47:48.326Z,15.08
2023-03-17T08:52:52.391Z,14.64
2023-03-17T08:57:55.246Z,14.12
2023-03-17T09:02:58.972Z,13.45
2023-03-17T09:08:18.228Z,12.84
2023-03-17T09:13:34.090Z,12.54
2023-03-17T09:18:37.242Z,11.79
2023-03-17T09:23:41.656Z,11.03
2023-03-17T09:28:44.889Z,10.44
2023-03-17T09:33:47.720Z,9.91
2023-03-17T09:38:51.282Z,9.62
2023-03-17T09:44:22.388Z,9.31
2023-03-17T09:49:37.751Z,9.00
2023-03-17T09:54:43.263Z,8.84
2023-03-17T09:59:52.375Z,8.80
2023-03-17T10:04:59.580Z,8.79
2023-03-17T10:10:20.779Z,8.88
2023-03-17T10:15:50.798Z,8.95
2023-03-17T10:21:00.367Z,9.00
2023-03-17T10:26:12.817Z,9.00
2023-03-17T10:31:28.687Z,9.00
2023-03-17T10:36:54.061Z,8.97
2023-03-17T10:42:19.834Z,8.99
2023-03-17T10:47:29.832Z,9.13
2023-03-17T10:52:39.717Z,9.29
2023-03-17T10:58:15.327Z,9.33
2023-03-17T11:03:28.257Z,9.46
2023-03-17T11:08:35.923Z,9.60
2023-03-17T11:13:39.972Z,9.65
2023-03-17T11:18:43.208Z,9.80
2023-03-17T11:23:58.879Z,9.95
2023-03-17T11:29:19.949Z,10.11
2023-03-17T11:34:46.505Z,10.21
2023-03-17T11:40:08.723Z,10.19
2023-03-17T11:45:19.777Z,10.03
2023-03-17T11:50:24.682Z,9.91
2023-03-17T11:55:43.686Z,9.82
2023-03-17T12:00:53.012Z,9.77
2023-03-17T12:06:04.540Z,9.83
2023-03-17T12:11:12.436Z,9.80
2023-03-17T12:16:26.807Z,9.76
2023-03-17T12:21:52.250Z,9.60
2023-03-17T12:27:17.058Z,9.36
2023-03-17T12:32:38.639Z,9.25
2023-03-17T12:37:41.994Z,9.21
2023-03-17T12:43:03.538Z,9.20
2023-03-17T12:48:44.485Z,9.18
2023-03-17T12:53:50.907Z,9.22
2023-03-17T12:59:02.025Z,9.36
2023-03-17T13:04:30.087Z,9.39
2023-03-17T13:09:33.076Z,9.34
2023-03-17T13:14:46.675Z,9.22
2023-03-17T13:20:08.410Z,9.18
2023-03-17T13:25:35.737Z,9.17
2023-03-17T13:30:39.110Z,9.20
2023-03-17T13:35:42.056Z,9.22
2023-03-17T13:41:13.238Z,9.19
2023-03-17T13:46:21.453Z,9.28
2023-03-17T13:51:27.512Z,9.31
2023-03-17T13:56:36.700Z,9.24
2023-03-17T14:01:59.695Z,9.17
2023-03-17T14:07:10.099Z,9.06
2023-03-17T14:12:51.327Z,8.94
2023-03-17T14:18:01.643Z,8.88
2023-03-17T14:23:06.654Z,8.84
2023-03-17T14:28:15.500Z,8.82
2023-03-17T14:33:27.913Z,8.76
2023-03-17T14:38:37.873Z,8.70
2023-03-17T14:43:41.870Z,8.62
2023-03-17T14:48:48.385Z,8.55
2023-03-17T14:53:53.161Z,8.48
2023-03-17T14:59:06.478Z,8.38
2023-03-17T15:04:16.891Z,8.26
2023-03-17T15:09:33.382Z,8.12
2023-03-17T15:14:40.072Z,7.97
2023-03-17T15:19:46.069Z,7.85
2023-03-17T15:24:59.198Z,7.74
2023-03-17T15:30:02.658Z,7.62
2023-03-17T15:35:06.900Z,7.52
2023-03-17T15:40:10.746Z,7.43
2023-03-17T15:45:18.184Z,7.31
2023-03-17T15:50:34.894Z,7.18
2023-03-17T15:55:37.957Z,7.05
2023-03-17T16:00:41.676Z,6.93
2023-03-17T16:05:45.029Z,6.81
2023-03-17T16:10:48.281Z,6.69
2023-03-17T16:15:55.913Z,6.58
2023-03-17T16:20:58.884Z,6.46
2023-03-17T16:26:14.224Z,6.34
2023-03-17T16:31:19.982Z,6.23
2023-03-17T16:36:24.475Z,6.14
2023-03-17T16:41:28.368Z,6.02
2023-03-17T16:46:35.623Z,5.92
2023-03-17T16:51:38.649Z,5.84
2023-03-17T16:56:43.066Z,5.74
2023-03-17T17:01:46.021Z,5.66
2023-03-17T17:06:50.095Z,5.56
2023-03-17T17:11:52.892Z,5.47
2023-03-17T17:16:58.080Z,5.37
2023-03-17T17:22:01.147Z,5.29
2023-03-17T17:27:04.198Z,5.21
2023-03-17T17:32:07.098Z,5.14
2023-03-17T17:37:11.401Z,5.08
2023-03-17T17:42:14.354Z,5.04
2023-03-17T17:47:17.299Z,5.01
2023-03-17T17:52:20.133Z,5.00
2023-03-17T17:57:24.374Z,4.99
2023-03-17T18:02:29.890Z,4.97
2023-03-17T18:07:32.841Z,4.93
2023-03-17T18:12:35.706Z,4.89
2023-03-17T18:17:38.641Z,4.86
2023-03-17T18:22:41.776Z,4.85
2023-03-17T18:27:45.253Z,4.83
2023-03-17T18:32:49.888Z,4.81
2023-03-17T18:37:53.848Z,4.79
2023-03-17T18:42:56.854Z,4.78
2023-03-17T18:47:59.863Z,4.77
2023-03-17T18:53:03.313Z,4.75
2023-03-17T18:58:06.506Z,4.75
2023-03-17T19:03:09.534Z,4.73
2023-03-17T19:08:14.056Z,4.70
2023-03-17T19:13:17.075Z,4.66
2023-03-17T19:18:19.869Z,4.64
2023-03-17T19:23:23.921Z,4.59
2023-03-17T19:28:26.807Z,4.56
2023-03-17T19:33:29.652Z,4.53
2023-03-17T19:38:32.928Z,4.51
2023-03-17T19:43:40.836Z,4.49
2023-03-17T19:48:44.240Z,4.45
2023-03-17T19:53:47.063Z,4.41
2023-03-17T19:58:50.151Z,4.36
2023-03-17T20:03:53.087Z,4.32
2023-03-17T20:08:56.029Z,4.30
2023-03-17T20:13:58.840Z,4.27
2023-03-17T20:19:02.306Z,4.24
2023-03-17T20:24:05.865Z,4.22
2023-03-17T20:29:09.896Z,4.22
2023-03-17T20:34:12.849Z,4.22
2023-03-17T20:39:20.118Z,4.23
2023-03-17T20:44:24.188Z,4.25
2023-03-17T20:49:27.855Z,4.24
2023-03-17T20:54:30.672Z,4.24
2023-03-17T20:59:34.619Z,4.23
2023-03-17T21:04:37.724Z,4.21
2023-03-17T21:09:43.828Z,4.18
2023-03-17T21:14:48.336Z,4.17
2023-03-17T21:19:51.164Z,4.13
2023-03-17T21:24:54.072Z,4.10
2023-03-17T21:29:56.883Z,4.07
2023-03-17T21:34:59.659Z,4.04
2023-03-17T21:40:07.092Z,4.03
2023-03-17T21:45:10.622Z,4.05
2023-03-17T21:50:14.529Z,4.06
2023-03-17T21:55:18.708Z,4.07
2023-03-17T22:00:23.643Z,4.08
2023-03-17T22:05:27.292Z,4.08
2023-03-17T22:10:30.596Z,4.09
2023-03-17T22:15:33.502Z,4.09
2023-03-17T22:20:36.387Z,4.09
2023-03-17T22:25:39.201Z,4.07
2023-03-17T22:30:43.718Z,4.05
2023-03-17T22:35:47.016Z,4.02
2023-03-17T22:41:03.971Z,4.01
2023-03-17T22:46:06.840Z,4.00
2023-03-17T22:51:12.657Z,3.97
2023-03-17T22:56:17.430Z,3.93
2023-03-17T23:01:22.673Z,3.90
2023-03-17T23:06:25.813Z,3.86
2023-03-17T23:11:31.151Z,3.83
2023-03-17T23:16:34.255Z,3.79
2023-03-17T23:21:38.819Z,3.76
2023-03-17T23:26:42.130Z,3.73
2023-03-17T23:31:44.993Z,3.68
2023-03-17T23:36:48.977Z,3.62
2023-03-17T23:41:53.435Z,3.57
2023-03-17T23:46:57.335Z,3.52
2023-03-17T23:52:00.092Z,3.49
2023-03-17T23:57:03.214Z,3.47
